Plevna, Montana
Current Conditions -  °F | °C
As of 5:51 PM on Sunday 23 Nov 2014 (Local Time) from KBHK Reporting Station
Overcast Overcast  
Wind Chill:   Ceiling: 2200
Heat Index: 23°   Visibility: 10mi
Dew Point: 16°   Wind: 18mph
Humidity: 74%   Direction: 310°NW
Pressure: 29.78"   Gusts: 24mph
Location:  46.42°N, 104.52°W
Report Text: KBHK 240051Z AUTO 31016G21KT 10SM BKN022 BKN028 OVC085 M05/M09 A2978 RMK AO2 SLP113 T10501089
Loading
Personal Weather Stations






























Interactive Weather Map New forecast layout! Learn more

10-Day Weather Forecast

Advertisements
Track Severe Weather on mobile